sensor_id;sensor_type;location;lat;lon;timestamp;P1;durP1;ratioP1;P2;durP2;ratioP2
26484;SDS011;18083;50.560;7.262;2024-01-15T00:04:50;10.20;;;6.30;;
26484;SDS011;18083;50.560;7.262;2024-01-15T00:07:27;12.53;;;6.33;;
26484;SDS011;18083;50.560;7.262;2024-01-15T00:09:53;11.07;;;6.27;;
26484;SDS011;18083;50.560;7.262;2024-01-15T00:12:28;16.27;;;6.63;;
26484;SDS011;18083;50.560;7.262;2024-01-15T00:36:28;10.77;;;5.60;;
26484;SDS011;18083;50.560;7.262;2024-01-15T00:39:01;11.13;;;6.60;;
26484;SDS011;18083;50.560;7.262;2024-01-15T00:41:31;12.77;;;6.30;;
26484;SDS011;18083;50.560;7.262;2024-01-15T00:44:26;12.97;;;7.60;;
26484;SDS011;18083;50.560;7.262;2024-01-15T00:47:02;14.13;;;6.13;;
26484;SDS011;18083;50.560;7.262;2024-01-15T00:52:17;11.33;;;5.47;;
26484;SDS011;18083;50.560;7.262;2024-01-15T00:54:44;6.47;;;3.23;;
26484;SDS011;18083;50.560;7.262;2024-01-15T00:57:12;13.17;;;6.50;;
26484;SDS011;18083;50.560;7.262;2024-01-15T00:59:39;9.37;;;6.00;;
26484;SDS011;18083;50.560;7.262;2024-01-15T01:02:06;16.67;;;7.33;;
26484;SDS011;18083;50.560;7.262;2024-01-15T01:04:34;17.23;;;8.03;;
26484;SDS011;18083;50.560;7.262;2024-01-15T01:07:01;16.87;;;7.20;;
26484;SDS011;18083;50.560;7.262;2024-01-15T01:09:28;18.13;;;7.60;;
26484;SDS011;18083;50.560;7.262;2024-01-15T01:11:56;15.13;;;7.63;;
26484;SDS011;18083;50.560;7.262;2024-01-15T01:14:23;17.07;;;8.17;;
26484;SDS011;18083;50.560;7.262;2024-01-15T01:16:51;16.87;;;7.57;;
26484;SDS011;18083;50.560;7.262;2024-01-15T01:19:18;16.10;;;7.97;;
26484;SDS011;18083;50.560;7.262;2024-01-15T01:21:45;16.40;;;7.83;;
26484;SDS011;18083;50.560;7.262;2024-01-15T01:24:13;10.97;;;6.60;;
26484;SDS011;18083;50.560;7.262;2024-01-15T01:26:40;14.67;;;7.73;;
26484;SDS011;18083;50.560;7.262;2024-01-15T01:29:07;17.37;;;7.40;;
26484;SDS011;18083;50.560;7.262;2024-01-15T01:31:34;18.13;;;8.20;;
26484;SDS011;18083;50.560;7.262;2024-01-15T01:34:02;13.33;;;7.27;;
26484;SDS011;18083;50.560;7.262;2024-01-15T01:36:31;15.57;;;7.90;;
26484;SDS011;18083;50.560;7.262;2024-01-15T01:38:58;19.23;;;7.07;;
26484;SDS011;18083;50.560;7.262;2024-01-15T01:41:25;15.77;;;7.40;;
26484;SDS011;18083;50.560;7.262;2024-01-15T01:43:53;14.77;;;7.43;;
26484;SDS011;18083;50.560;7.262;2024-01-15T01:46:20;9.60;;;6.47;;
26484;SDS011;18083;50.560;7.262;2024-01-15T01:48:47;11.73;;;7.57;;
26484;SDS011;18083;50.560;7.262;2024-01-15T01:51:15;16.77;;;7.97;;
26484;SDS011;18083;50.560;7.262;2024-01-15T01:53:43;16.10;;;7.80;;
26484;SDS011;18083;50.560;7.262;2024-01-15T01:56:11;17.37;;;8.53;;
26484;SDS011;18083;50.560;7.262;2024-01-15T01:58:39;17.03;;;9.50;;
26484;SDS011;18083;50.560;7.262;2024-01-15T02:01:07;14.30;;;7.40;;
26484;SDS011;18083;50.560;7.262;2024-01-15T02:03:34;15.87;;;8.47;;
26484;SDS011;18083;50.560;7.262;2024-01-15T02:06:01;13.83;;;7.03;;
26484;SDS011;18083;50.560;7.262;2024-01-15T02:08:29;14.77;;;8.03;;
26484;SDS011;18083;50.560;7.262;2024-01-15T02:10:57;14.87;;;8.63;;
26484;SDS011;18083;50.560;7.262;2024-01-15T02:13:24;15.63;;;9.47;;
26484;SDS011;18083;50.560;7.262;2024-01-15T02:15:51;14.33;;;7.33;;
26484;SDS011;18083;50.560;7.262;2024-01-15T02:18:19;22.60;;;8.80;;
26484;SDS011;18083;50.560;7.262;2024-01-15T02:20:46;18.47;;;7.73;;
26484;SDS011;18083;50.560;7.262;2024-01-15T02:23:14;20.87;;;8.87;;
26484;SDS011;18083;50.560;7.262;2024-01-15T02:25:42;17.50;;;7.30;;
26484;SDS011;18083;50.560;7.262;2024-01-15T02:28:15;22.30;;;9.70;;
26484;SDS011;18083;50.560;7.262;2024-01-15T02:30:40;17.10;;;6.03;;
26484;SDS011;18083;50.560;7.262;2024-01-15T02:33:07;11.07;;;6.20;;
26484;SDS011;18083;50.560;7.262;2024-01-15T02:35:35;14.60;;;7.40;;
26484;SDS011;18083;50.560;7.262;2024-01-15T02:38:07;15.43;;;8.27;;
26484;SDS011;18083;50.560;7.262;2024-01-15T02:40:34;15.67;;;7.70;;
26484;SDS011;18083;50.560;7.262;2024-01-15T02:43:01;22.63;;;9.13;;
26484;SDS011;18083;50.560;7.262;2024-01-15T02:45:28;18.97;;;7.30;;
26484;SDS011;18083;50.560;7.262;2024-01-15T02:47:56;12.00;;;5.80;;
26484;SDS011;18083;50.560;7.262;2024-01-15T02:50:23;14.37;;;8.17;;
26484;SDS011;18083;50.560;7.262;2024-01-15T02:52:50;16.90;;;8.67;;
26484;SDS011;18083;50.560;7.262;2024-01-15T02:55:18;20.27;;;8.73;;
26484;SDS011;18083;50.560;7.262;2024-01-15T02:57:45;17.80;;;8.67;;
26484;SDS011;18083;50.560;7.262;2024-01-15T03:00:12;25.33;;;10.40;;
26484;SDS011;18083;50.560;7.262;2024-01-15T03:02:40;25.37;;;9.60;;
26484;SDS011;18083;50.560;7.262;2024-01-15T03:05:09;18.53;;;7.87;;
26484;SDS011;18083;50.560;7.262;2024-01-15T03:07:36;23.20;;;9.23;;
26484;SDS011;18083;50.560;7.262;2024-01-15T03:10:04;14.43;;;8.03;;
26484;SDS011;18083;50.560;7.262;2024-01-15T03:12:32;25.40;;;10.50;;
26484;SDS011;18083;50.560;7.262;2024-01-15T03:15:00;21.63;;;8.83;;
26484;SDS011;18083;50.560;7.262;2024-01-15T03:17:27;15.70;;;8.77;;
26484;SDS011;18083;50.560;7.262;2024-01-15T03:19:54;16.57;;;8.30;;
26484;SDS011;18083;50.560;7.262;2024-01-15T03:22:22;24.57;;;9.57;;
26484;SDS011;18083;50.560;7.262;2024-01-15T03:24:49;17.80;;;7.23;;
26484;SDS011;18083;50.560;7.262;2024-01-15T03:27:16;21.50;;;9.47;;
26484;SDS011;18083;50.560;7.262;2024-01-15T03:29:43;21.37;;;10.93;;
26484;SDS011;18083;50.560;7.262;2024-01-15T03:32:11;13.33;;;8.23;;
26484;SDS011;18083;50.560;7.262;2024-01-15T03:34:38;20.27;;;10.03;;
26484;SDS011;18083;50.560;7.262;2024-01-15T03:37:05;15.43;;;9.03;;
26484;SDS011;18083;50.560;7.262;2024-01-15T03:39:33;19.03;;;9.73;;
26484;SDS011;18083;50.560;7.262;2024-01-15T03:42:00;17.63;;;8.30;;
26484;SDS011;18083;50.560;7.262;2024-01-15T03:44:27;15.77;;;8.13;;
26484;SDS011;18083;50.560;7.262;2024-01-15T03:46:55;21.13;;;8.80;;
26484;SDS011;18083;50.560;7.262;2024-01-15T03:49:22;18.37;;;9.93;;
26484;SDS011;18083;50.560;7.262;2024-01-15T03:51:49;15.10;;;8.07;;
26484;SDS011;18083;50.560;7.262;2024-01-15T03:54:16;19.97;;;9.97;;
26484;SDS011;18083;50.560;7.262;2024-01-15T03:56:44;15.13;;;8.00;;
26484;SDS011;18083;50.560;7.262;2024-01-15T03:59:11;13.97;;;6.90;;
26484;SDS011;18083;50.560;7.262;2024-01-15T04:01:38;19.53;;;8.97;;
26484;SDS011;18083;50.560;7.262;2024-01-15T04:04:05;21.07;;;9.40;;
26484;SDS011;18083;50.560;7.262;2024-01-15T04:06:33;18.47;;;8.90;;
26484;SDS011;18083;50.560;7.262;2024-01-15T04:09:00;16.80;;;7.47;;
26484;SDS011;18083;50.560;7.262;2024-01-15T04:11:27;23.70;;;10.33;;
26484;SDS011;18083;50.560;7.262;2024-01-15T04:13:55;19.90;;;8.80;;
26484;SDS011;18083;50.560;7.262;2024-01-15T04:16:22;20.07;;;8.67;;
26484;SDS011;18083;50.560;7.262;2024-01-15T04:18:49;20.10;;;8.93;;
26484;SDS011;18083;50.560;7.262;2024-01-15T04:21:17;16.43;;;8.07;;
26484;SDS011;18083;50.560;7.262;2024-01-15T04:23:44;17.20;;;8.80;;
26484;SDS011;18083;50.560;7.262;2024-01-15T04:26:12;21.23;;;8.43;;
26484;SDS011;18083;50.560;7.262;2024-01-15T04:28:39;17.47;;;8.40;;
26484;SDS011;18083;50.560;7.262;2024-01-15T04:31:06;14.93;;;7.60;;
26484;SDS011;18083;50.560;7.262;2024-01-15T04:33:34;15.80;;;7.97;;
26484;SDS011;18083;50.560;7.262;2024-01-15T04:36:01;17.13;;;6.87;;
26484;SDS011;18083;50.560;7.262;2024-01-15T04:38:29;20.63;;;8.23;;
26484;SDS011;18083;50.560;7.262;2024-01-15T04:40:56;22.47;;;8.90;;
26484;SDS011;18083;50.560;7.262;2024-01-15T04:43:24;20.07;;;9.57;;
26484;SDS011;18083;50.560;7.262;2024-01-15T04:45:51;11.43;;;7.00;;
26484;SDS011;18083;50.560;7.262;2024-01-15T04:48:18;16.07;;;7.13;;
26484;SDS011;18083;50.560;7.262;2024-01-15T04:50:46;15.27;;;8.17;;
26484;SDS011;18083;50.560;7.262;2024-01-15T04:53:13;12.43;;;5.97;;
26484;SDS011;18083;50.560;7.262;2024-01-15T04:55:40;16.90;;;7.77;;
26484;SDS011;18083;50.560;7.262;2024-01-15T04:58:08;15.57;;;7.57;;
26484;SDS011;18083;50.560;7.262;2024-01-15T05:00:35;16.37;;;7.50;;
26484;SDS011;18083;50.560;7.262;2024-01-15T05:03:02;21.70;;;8.60;;
26484;SDS011;18083;50.560;7.262;2024-01-15T05:05:30;20.00;;;8.60;;
26484;SDS011;18083;50.560;7.262;2024-01-15T05:07:57;17.57;;;7.60;;
26484;SDS011;18083;50.560;7.262;2024-01-15T05:10:24;20.53;;;9.40;;
26484;SDS011;18083;50.560;7.262;2024-01-15T05:12:51;20.60;;;7.57;;
26484;SDS011;18083;50.560;7.262;2024-01-15T05:15:19;16.43;;;8.87;;
26484;SDS011;18083;50.560;7.262;2024-01-15T05:17:46;14.50;;;7.93;;
26484;SDS011;18083;50.560;7.262;2024-01-15T05:20:13;14.87;;;8.43;;
26484;SDS011;18083;50.560;7.262;2024-01-15T05:22:41;17.73;;;7.90;;
26484;SDS011;18083;50.560;7.262;2024-01-15T05:25:08;20.43;;;8.90;;
26484;SDS011;18083;50.560;7.262;2024-01-15T05:27:35;21.57;;;9.13;;
26484;SDS011;18083;50.560;7.262;2024-01-15T05:30:03;17.67;;;7.67;;
26484;SDS011;18083;50.560;7.262;2024-01-15T05:32:30;14.27;;;7.43;;
26484;SDS011;18083;50.560;7.262;2024-01-15T05:34:57;18.53;;;9.43;;
26484;SDS011;18083;50.560;7.262;2024-01-15T05:37:25;16.57;;;8.37;;
26484;SDS011;18083;50.560;7.262;2024-01-15T05:39:52;15.27;;;8.90;;
26484;SDS011;18083;50.560;7.262;2024-01-15T05:42:19;18.70;;;8.33;;
26484;SDS011;18083;50.560;7.262;2024-01-15T05:44:47;17.80;;;9.13;;
26484;SDS011;18083;50.560;7.262;2024-01-15T05:47:14;16.07;;;8.27;;
26484;SDS011;18083;50.560;7.262;2024-01-15T05:49:41;19.60;;;10.80;;
26484;SDS011;18083;50.560;7.262;2024-01-15T05:52:08;21.00;;;8.93;;
26484;SDS011;18083;50.560;7.262;2024-01-15T05:54:36;17.37;;;8.80;;
26484;SDS011;18083;50.560;7.262;2024-01-15T05:57:03;17.77;;;9.17;;
26484;SDS011;18083;50.560;7.262;2024-01-15T05:59:30;20.27;;;8.47;;
26484;SDS011;18083;50.560;7.262;2024-01-15T06:01:59;20.23;;;9.17;;
26484;SDS011;18083;50.560;7.262;2024-01-15T06:04:27;18.20;;;9.97;;
26484;SDS011;18083;50.560;7.262;2024-01-15T06:06:54;24.07;;;10.53;;
26484;SDS011;18083;50.560;7.262;2024-01-15T06:09:21;22.87;;;10.50;;
26484;SDS011;18083;50.560;7.262;2024-01-15T06:11:48;21.67;;;10.70;;
26484;SDS011;18083;50.560;7.262;2024-01-15T06:14:16;25.53;;;10.97;;
26484;SDS011;18083;50.560;7.262;2024-01-15T06:16:43;23.13;;;10.23;;
26484;SDS011;18083;50.560;7.262;2024-01-15T06:19:10;26.47;;;11.13;;
26484;SDS011;18083;50.560;7.262;2024-01-15T06:21:37;22.63;;;11.13;;
26484;SDS011;18083;50.560;7.262;2024-01-15T06:24:05;22.83;;;11.00;;
26484;SDS011;18083;50.560;7.262;2024-01-15T06:26:32;23.63;;;9.77;;
26484;SDS011;18083;50.560;7.262;2024-01-15T06:28:59;24.90;;;11.47;;
26484;SDS011;18083;50.560;7.262;2024-01-15T06:31:27;28.53;;;11.43;;
26484;SDS011;18083;50.560;7.262;2024-01-15T06:33:55;21.97;;;11.23;;
26484;SDS011;18083;50.560;7.262;2024-01-15T06:36:22;26.50;;;10.90;;
26484;SDS011;18083;50.560;7.262;2024-01-15T06:38:49;22.27;;;11.67;;
26484;SDS011;18083;50.560;7.262;2024-01-15T06:41:17;27.47;;;11.63;;
26484;SDS011;18083;50.560;7.262;2024-01-15T06:43:44;27.83;;;13.00;;
26484;SDS011;18083;50.560;7.262;2024-01-15T06:46:11;23.87;;;10.53;;
26484;SDS011;18083;50.560;7.262;2024-01-15T06:48:39;25.10;;;11.47;;
26484;SDS011;18083;50.560;7.262;2024-01-15T06:51:06;25.80;;;11.97;;
26484;SDS011;18083;50.560;7.262;2024-01-15T06:53:33;23.30;;;11.87;;
26484;SDS011;18083;50.560;7.262;2024-01-15T06:56:01;17.80;;;10.07;;
26484;SDS011;18083;50.560;7.262;2024-01-15T06:58:30;19.63;;;10.60;;
26484;SDS011;18083;50.560;7.262;2024-01-15T07:00:58;23.03;;;10.20;;
26484;SDS011;18083;50.560;7.262;2024-01-15T07:03:25;20.33;;;10.30;;
26484;SDS011;18083;50.560;7.262;2024-01-15T07:05:53;22.00;;;10.80;;
26484;SDS011;18083;50.560;7.262;2024-01-15T07:08:20;21.43;;;11.00;;
26484;SDS011;18083;50.560;7.262;2024-01-15T07:10:47;24.60;;;12.27;;
26484;SDS011;18083;50.560;7.262;2024-01-15T07:13:15;22.63;;;10.00;;
26484;SDS011;18083;50.560;7.262;2024-01-15T07:15:42;25.33;;;11.53;;
26484;SDS011;18083;50.560;7.262;2024-01-15T07:21:12;27.33;;;13.43;;
26484;SDS011;18083;50.560;7.262;2024-01-15T07:23:40;23.20;;;12.40;;
26484;SDS011;18083;50.560;7.262;2024-01-15T07:26:08;26.53;;;12.73;;
26484;SDS011;18083;50.560;7.262;2024-01-15T07:28:35;21.23;;;13.07;;
26484;SDS011;18083;50.560;7.262;2024-01-15T07:31:03;28.83;;;11.20;;
26484;SDS011;18083;50.560;7.262;2024-01-15T07:33:32;25.97;;;10.60;;
26484;SDS011;18083;50.560;7.262;2024-01-15T07:35:59;24.37;;;12.53;;
26484;SDS011;18083;50.560;7.262;2024-01-15T07:38:27;29.13;;;12.37;;
26484;SDS011;18083;50.560;7.262;2024-01-15T07:40:55;30.23;;;12.80;;
26484;SDS011;18083;50.560;7.262;2024-01-15T07:45:53;29.90;;;13.13;;
26484;SDS011;18083;50.560;7.262;2024-01-15T07:48:25;26.97;;;12.50;;
26484;SDS011;18083;50.560;7.262;2024-01-15T07:51:03;24.23;;;11.90;;
26484;SDS011;18083;50.560;7.262;2024-01-15T07:56:57;28.23;;;12.43;;
26484;SDS011;18083;50.560;7.262;2024-01-15T07:59:04;20.77;;;10.47;;
26484;SDS011;18083;50.560;7.262;2024-01-15T08:01:31;21.17;;;10.53;;
26484;SDS011;18083;50.560;7.262;2024-01-15T08:03:59;19.10;;;10.53;;
26484;SDS011;18083;50.560;7.262;2024-01-15T08:06:26;22.63;;;10.87;;
26484;SDS011;18083;50.560;7.262;2024-01-15T08:08:54;22.37;;;10.67;;
26484;SDS011;18083;50.560;7.262;2024-01-15T08:11:21;24.70;;;12.77;;
26484;SDS011;18083;50.560;7.262;2024-01-15T08:13:48;23.17;;;13.10;;
26484;SDS011;18083;50.560;7.262;2024-01-15T08:16:16;25.80;;;11.93;;
26484;SDS011;18083;50.560;7.262;2024-01-15T08:18:43;24.67;;;12.07;;
26484;SDS011;18083;50.560;7.262;2024-01-15T08:21:10;23.03;;;12.20;;
26484;SDS011;18083;50.560;7.262;2024-01-15T08:23:38;23.63;;;13.37;;
26484;SDS011;18083;50.560;7.262;2024-01-15T08:26:05;19.17;;;11.20;;
26484;SDS011;18083;50.560;7.262;2024-01-15T08:28:33;23.17;;;12.60;;
26484;SDS011;18083;50.560;7.262;2024-01-15T08:31:00;24.50;;;11.63;;
26484;SDS011;18083;50.560;7.262;2024-01-15T08:33:27;22.40;;;11.57;;
26484;SDS011;18083;50.560;7.262;2024-01-15T08:35:55;25.97;;;11.47;;
26484;SDS011;18083;50.560;7.262;2024-01-15T08:38:28;24.23;;;12.43;;
26484;SDS011;18083;50.560;7.262;2024-01-15T08:40:56;28.70;;;12.53;;
26484;SDS011;18083;50.560;7.262;2024-01-15T08:43:24;22.80;;;11.23;;
26484;SDS011;18083;50.560;7.262;2024-01-15T08:45:56;20.23;;;10.73;;
26484;SDS011;18083;50.560;7.262;2024-01-15T08:48:22;20.57;;;10.17;;
26484;SDS011;18083;50.560;7.262;2024-01-15T08:51:05;23.80;;;11.17;;
26484;SDS011;18083;50.560;7.262;2024-01-15T08:53:35;24.53;;;12.53;;
26484;SDS011;18083;50.560;7.262;2024-01-15T08:58:34;23.93;;;10.83;;
26484;SDS011;18083;50.560;7.262;2024-01-15T09:01:06;15.83;;;8.70;;
26484;SDS011;18083;50.560;7.262;2024-01-15T09:15:31;18.00;;;8.47;;
26484;SDS011;18083;50.560;7.262;2024-01-15T09:18:02;18.17;;;9.43;;
26484;SDS011;18083;50.560;7.262;2024-01-15T09:23:10;14.87;;;9.07;;
26484;SDS011;18083;50.560;7.262;2024-01-15T09:25:45;17.37;;;9.40;;
26484;SDS011;18083;50.560;7.262;2024-01-15T09:28:22;13.97;;;7.40;;
26484;SDS011;18083;50.560;7.262;2024-01-15T09:30:47;14.03;;;6.97;;
26484;SDS011;18083;50.560;7.262;2024-01-15T09:35:48;11.20;;;7.10;;
26484;SDS011;18083;50.560;7.262;2024-01-15T09:38:15;13.50;;;6.87;;
26484;SDS011;18083;50.560;7.262;2024-01-15T09:40:45;11.10;;;6.70;;
26484;SDS011;18083;50.560;7.262;2024-01-15T09:43:17;14.50;;;8.53;;
26484;SDS011;18083;50.560;7.262;2024-01-15T09:50:52;8.47;;;5.30;;
26484;SDS011;18083;50.560;7.262;2024-01-15T09:53:22;8.03;;;5.20;;
26484;SDS011;18083;50.560;7.262;2024-01-15T09:55:52;11.10;;;6.37;;
26484;SDS011;18083;50.560;7.262;2024-01-15T09:58:21;9.13;;;6.03;;
26484;SDS011;18083;50.560;7.262;2024-01-15T10:03:33;17.33;;;7.30;;
26484;SDS011;18083;50.560;7.262;2024-01-15T10:06:01;12.77;;;6.20;;
26484;SDS011;18083;50.560;7.262;2024-01-15T10:08:34;12.73;;;5.63;;
26484;SDS011;18083;50.560;7.262;2024-01-15T10:11:15;7.63;;;4.40;;
26484;SDS011;18083;50.560;7.262;2024-01-15T10:13:38;8.90;;;5.23;;
26484;SDS011;18083;50.560;7.262;2024-01-15T10:21:30;11.63;;;6.30;;
26484;SDS011;18083;50.560;7.262;2024-01-15T10:23:51;16.03;;;6.60;;
26484;SDS011;18083;50.560;7.262;2024-01-15T10:26:19;11.00;;;4.33;;
26484;SDS011;18083;50.560;7.262;2024-01-15T10:29:10;11.00;;;6.30;;
26484;SDS011;18083;50.560;7.262;2024-01-15T10:31:32;9.90;;;5.13;;
26484;SDS011;18083;50.560;7.262;2024-01-15T10:33:50;15.07;;;6.10;;
26484;SDS011;18083;50.560;7.262;2024-01-15T10:36:23;15.53;;;5.63;;
26484;SDS011;18083;50.560;7.262;2024-01-15T10:38:57;9.67;;;5.70;;
26484;SDS011;18083;50.560;7.262;2024-01-15T10:41:29;9.33;;;4.53;;
26484;SDS011;18083;50.560;7.262;2024-01-15T10:43:59;9.70;;;6.13;;
26484;SDS011;18083;50.560;7.262;2024-01-15T10:46:29;6.53;;;4.63;;
26484;SDS011;18083;50.560;7.262;2024-01-15T10:49:26;8.40;;;4.20;;
26484;SDS011;18083;50.560;7.262;2024-01-15T10:54:19;10.93;;;4.73;;
26484;SDS011;18083;50.560;7.262;2024-01-15T10:56:46;10.50;;;5.47;;
26484;SDS011;18083;50.560;7.262;2024-01-15T10:59:20;8.17;;;5.27;;
26484;SDS011;18083;50.560;7.262;2024-01-15T11:01:49;10.97;;;5.80;;
26484;SDS011;18083;50.560;7.262;2024-01-15T11:04:26;11.00;;;5.60;;
26484;SDS011;18083;50.560;7.262;2024-01-15T11:06:51;7.47;;;6.20;;
26484;SDS011;18083;50.560;7.262;2024-01-15T11:12:20;8.27;;;4.43;;
26484;SDS011;18083;50.560;7.262;2024-01-15T11:17:22;8.47;;;5.70;;
26484;SDS011;18083;50.560;7.262;2024-01-15T11:19:55;11.80;;;5.20;;
26484;SDS011;18083;50.560;7.262;2024-01-15T11:25:33;9.70;;;5.73;;
26484;SDS011;18083;50.560;7.262;2024-01-15T11:28:05;15.93;;;6.23;;
26484;SDS011;18083;50.560;7.262;2024-01-15T11:30:43;10.43;;;6.80;;
26484;SDS011;18083;50.560;7.262;2024-01-15T11:33:07;7.90;;;5.43;;
26484;SDS011;18083;50.560;7.262;2024-01-15T11:35:49;9.37;;;6.60;;
26484;SDS011;18083;50.560;7.262;2024-01-15T11:38:26;11.60;;;6.93;;
26484;SDS011;18083;50.560;7.262;2024-01-15T11:40:59;7.10;;;5.50;;
26484;SDS011;18083;50.560;7.262;2024-01-15T11:43:41;12.60;;;6.27;;
26484;SDS011;18083;50.560;7.262;2024-01-15T11:46:17;10.97;;;6.80;;
26484;SDS011;18083;50.560;7.262;2024-01-15T11:48:44;12.97;;;6.27;;
26484;SDS011;18083;50.560;7.262;2024-01-15T11:51:15;10.33;;;6.53;;
26484;SDS011;18083;50.560;7.262;2024-01-15T11:53:46;13.73;;;6.30;;
26484;SDS011;18083;50.560;7.262;2024-01-15T11:56:20;13.30;;;7.00;;
26484;SDS011;18083;50.560;7.262;2024-01-15T12:01:28;10.13;;;6.40;;
26484;SDS011;18083;50.560;7.262;2024-01-15T12:04:02;9.90;;;5.73;;
26484;SDS011;18083;50.560;7.262;2024-01-15T12:06:31;9.70;;;5.93;;
26484;SDS011;18083;50.560;7.262;2024-01-15T12:09:09;13.57;;;7.47;;
26484;SDS011;18083;50.560;7.262;2024-01-15T12:11:54;10.27;;;6.43;;
26484;SDS011;18083;50.560;7.262;2024-01-15T12:14:09;15.73;;;6.47;;
26484;SDS011;18083;50.560;7.262;2024-01-15T12:16:44;11.90;;;6.37;;
26484;SDS011;18083;50.560;7.262;2024-01-15T12:24:52;14.53;;;5.63;;
26484;SDS011;18083;50.560;7.262;2024-01-15T12:27:24;10.03;;;5.03;;
26484;SDS011;18083;50.560;7.262;2024-01-15T12:29:53;9.33;;;5.80;;
26484;SDS011;18083;50.560;7.262;2024-01-15T12:32:24;7.80;;;4.73;;
26484;SDS011;18083;50.560;7.262;2024-01-15T12:34:50;11.73;;;5.33;;
26484;SDS011;18083;50.560;7.262;2024-01-15T12:37:27;10.07;;;5.27;;
26484;SDS011;18083;50.560;7.262;2024-01-15T12:40:05;6.43;;;4.33;;
26484;SDS011;18083;50.560;7.262;2024-01-15T12:42:39;8.10;;;4.63;;
26484;SDS011;18083;50.560;7.262;2024-01-15T12:45:13;11.50;;;5.43;;
26484;SDS011;18083;50.560;7.262;2024-01-15T12:47:55;11.23;;;4.70;;
26484;SDS011;18083;50.560;7.262;2024-01-15T12:50:31;7.50;;;4.43;;
26484;SDS011;18083;50.560;7.262;2024-01-15T12:53:09;9.77;;;5.13;;
26484;SDS011;18083;50.560;7.262;2024-01-15T12:55:30;8.13;;;5.27;;
26484;SDS011;18083;50.560;7.262;2024-01-15T12:57:59;7.67;;;4.73;;
26484;SDS011;18083;50.560;7.262;2024-01-15T13:00:27;6.77;;;4.87;;
26484;SDS011;18083;50.560;7.262;2024-01-15T13:02:59;6.63;;;4.83;;
26484;SDS011;18083;50.560;7.262;2024-01-15T13:05:27;9.20;;;6.37;;
26484;SDS011;18083;50.560;7.262;2024-01-15T13:07:55;8.07;;;4.00;;
26484;SDS011;18083;50.560;7.262;2024-01-15T13:10:23;8.33;;;4.63;;
26484;SDS011;18083;50.560;7.262;2024-01-15T13:12:51;8.00;;;4.10;;
26484;SDS011;18083;50.560;7.262;2024-01-15T13:15:18;11.57;;;4.73;;
26484;SDS011;18083;50.560;7.262;2024-01-15T13:17:45;9.90;;;3.77;;
26484;SDS011;18083;50.560;7.262;2024-01-15T13:20:13;5.17;;;3.40;;
26484;SDS011;18083;50.560;7.262;2024-01-15T13:22:40;5.67;;;3.17;;
26484;SDS011;18083;50.560;7.262;2024-01-15T13:25:09;11.30;;;4.40;;
26484;SDS011;18083;50.560;7.262;2024-01-15T13:27:37;7.23;;;4.87;;
26484;SDS011;18083;50.560;7.262;2024-01-15T13:30:05;6.33;;;3.73;;
26484;SDS011;18083;50.560;7.262;2024-01-15T13:32:33;8.40;;;3.23;;
26484;SDS011;18083;50.560;7.262;2024-01-15T13:35:01;9.20;;;4.33;;
26484;SDS011;18083;50.560;7.262;2024-01-15T13:37:30;4.47;;;2.97;;
26484;SDS011;18083;50.560;7.262;2024-01-15T13:39:58;6.87;;;3.73;;
26484;SDS011;18083;50.560;7.262;2024-01-15T13:42:25;4.80;;;2.77;;
26484;SDS011;18083;50.560;7.262;2024-01-15T13:44:53;6.27;;;2.87;;
26484;SDS011;18083;50.560;7.262;2024-01-15T13:47:20;7.70;;;3.40;;
26484;SDS011;18083;50.560;7.262;2024-01-15T13:49:48;4.43;;;3.27;;
26484;SDS011;18083;50.560;7.262;2024-01-15T13:52:15;8.40;;;3.67;;
26484;SDS011;18083;50.560;7.262;2024-01-15T13:54:42;7.23;;;2.83;;
26484;SDS011;18083;50.560;7.262;2024-01-15T13:57:10;11.57;;;3.63;;
26484;SDS011;18083;50.560;7.262;2024-01-15T13:59:37;6.27;;;3.43;;
26484;SDS011;18083;50.560;7.262;2024-01-15T14:02:05;12.40;;;4.93;;
26484;SDS011;18083;50.560;7.262;2024-01-15T14:04:32;6.60;;;3.57;;
26484;SDS011;18083;50.560;7.262;2024-01-15T14:06:59;18.67;;;4.63;;
26484;SDS011;18083;50.560;7.262;2024-01-15T14:09:28;7.83;;;3.63;;
26484;SDS011;18083;50.560;7.262;2024-01-15T14:11:55;14.37;;;4.77;;
26484;SDS011;18083;50.560;7.262;2024-01-15T14:14:22;6.30;;;3.97;;
26484;SDS011;18083;50.560;7.262;2024-01-15T14:16:50;8.77;;;5.57;;
26484;SDS011;18083;50.560;7.262;2024-01-15T14:19:17;10.20;;;4.80;;
26484;SDS011;18083;50.560;7.262;2024-01-15T14:21:45;6.77;;;4.23;;
26484;SDS011;18083;50.560;7.262;2024-01-15T14:24:12;4.10;;;3.63;;
26484;SDS011;18083;50.560;7.262;2024-01-15T14:26:39;13.57;;;5.67;;
26484;SDS011;18083;50.560;7.262;2024-01-15T14:32:02;13.00;;;5.13;;
26484;SDS011;18083;50.560;7.262;2024-01-15T14:34:29;8.10;;;5.03;;
26484;SDS011;18083;50.560;7.262;2024-01-15T14:36:56;8.27;;;4.10;;
26484;SDS011;18083;50.560;7.262;2024-01-15T14:39:24;12.23;;;5.93;;
26484;SDS011;18083;50.560;7.262;2024-01-15T14:41:52;8.17;;;5.00;;
26484;SDS011;18083;50.560;7.262;2024-01-15T14:44:19;9.40;;;4.03;;
26484;SDS011;18083;50.560;7.262;2024-01-15T14:46:47;6.57;;;3.83;;
26484;SDS011;18083;50.560;7.262;2024-01-15T14:49:14;8.60;;;4.27;;
26484;SDS011;18083;50.560;7.262;2024-01-15T14:51:43;9.23;;;5.63;;
26484;SDS011;18083;50.560;7.262;2024-01-15T14:54:10;6.37;;;4.10;;
26484;SDS011;18083;50.560;7.262;2024-01-15T14:56:38;8.00;;;3.50;;
26484;SDS011;18083;50.560;7.262;2024-01-15T14:59:05;11.07;;;4.07;;
26484;SDS011;18083;50.560;7.262;2024-01-15T15:01:33;7.50;;;4.03;;
26484;SDS011;18083;50.560;7.262;2024-01-15T15:04:00;12.80;;;3.93;;
26484;SDS011;18083;50.560;7.262;2024-01-15T15:06:27;6.67;;;3.47;;
26484;SDS011;18083;50.560;7.262;2024-01-15T15:08:55;5.27;;;2.27;;
26484;SDS011;18083;50.560;7.262;2024-01-15T15:11:25;5.23;;;2.87;;
26484;SDS011;18083;50.560;7.262;2024-01-15T15:13:52;7.80;;;3.20;;
26484;SDS011;18083;50.560;7.262;2024-01-15T15:16:19;4.47;;;3.17;;
26484;SDS011;18083;50.560;7.262;2024-01-15T15:18:46;3.90;;;2.90;;
26484;SDS011;18083;50.560;7.262;2024-01-15T15:21:14;10.67;;;3.27;;
26484;SDS011;18083;50.560;7.262;2024-01-15T15:23:41;5.53;;;2.73;;
26484;SDS011;18083;50.560;7.262;2024-01-15T15:26:09;7.57;;;2.37;;
26484;SDS011;18083;50.560;7.262;2024-01-15T15:28:36;3.43;;;3.17;;
26484;SDS011;18083;50.560;7.262;2024-01-15T15:31:03;5.07;;;2.77;;
26484;SDS011;18083;50.560;7.262;2024-01-15T15:33:33;4.70;;;2.30;;
26484;SDS011;18083;50.560;7.262;2024-01-15T15:36:00;5.00;;;2.97;;
26484;SDS011;18083;50.560;7.262;2024-01-15T15:38:29;3.10;;;2.23;;
26484;SDS011;18083;50.560;7.262;2024-01-15T15:40:56;4.93;;;2.67;;
26484;SDS011;18083;50.560;7.262;2024-01-15T15:43:23;2.93;;;2.47;;
26484;SDS011;18083;50.560;7.262;2024-01-15T15:45:51;3.83;;;2.03;;
26484;SDS011;18083;50.560;7.262;2024-01-15T15:48:18;4.07;;;2.80;;
26484;SDS011;18083;50.560;7.262;2024-01-15T15:50:45;3.50;;;2.60;;
26484;SDS011;18083;50.560;7.262;2024-01-15T15:53:13;3.13;;;1.80;;
26484;SDS011;18083;50.560;7.262;2024-01-15T15:55:40;8.10;;;2.60;;
26484;SDS011;18083;50.560;7.262;2024-01-15T15:58:07;3.70;;;2.00;;
26484;SDS011;18083;50.560;7.262;2024-01-15T16:00:36;3.47;;;1.97;;
26484;SDS011;18083;50.560;7.262;2024-01-15T16:03:03;3.00;;;2.57;;
26484;SDS011;18083;50.560;7.262;2024-01-15T16:05:31;3.70;;;2.63;;
26484;SDS011;18083;50.560;7.262;2024-01-15T16:07:58;4.27;;;2.30;;
26484;SDS011;18083;50.560;7.262;2024-01-15T16:10:25;6.77;;;2.97;;
26484;SDS011;18083;50.560;7.262;2024-01-15T16:12:53;4.33;;;2.93;;
26484;SDS011;18083;50.560;7.262;2024-01-15T16:15:20;2.97;;;2.67;;